Time;durP1;ratioP1;P1;durP2;ratioP2;P2;SDS_P1;SDS_P2;PMS_P1;PMS_P2;Temp;Humidity;BMP_temperature;BMP_pressure;BME280_temperature;BME280_humidity;BME280_pressure;Samples;Min_cycle;Max_cycle;Signal;HPM_P1;HPM_P2
2022/06/23 00:01:01;;;;;;;11.13;10.43;;;17.50;99.90;;;;;;5070369;28;20485;-52
2022/06/23 00:03:33;;;;;;;11.43;10.63;;;17.40;99.90;;;;;;5069805;28;20856;-52
2022/06/23 00:06:02;;;;;;;11.50;10.60;;;17.40;99.90;;;;;;5058032;28;20534;-52
2022/06/23 00:08:28;;;;;;;11.37;10.57;;;17.30;99.90;;;;;;5070067;28;20427;-52
2022/06/23 00:10:58;;;;;;;11.50;10.70;;;17.20;99.90;;;;;;5054835;28;20906;-52
2022/06/23 00:13:36;;;;;;;11.70;10.83;;;17.20;99.90;;;;;;5063963;28;20793;-52
2022/06/23 00:16:03;;;;;;;11.60;10.70;;;17.20;99.90;;;;;;5060272;28;20545;-50
2022/06/23 00:18:35;;;;;;;10.93;10.03;;;17.10;99.90;;;;;;5071447;28;20431;-53
2022/06/23 00:21:23;;;;;;;11.67;10.77;;;17.10;99.90;;;;;;5070906;28;20842;-53
2022/06/23 00:23:54;;;;;;;11.73;10.73;;;17.00;99.90;;;;;;5065000;28;20489;-51
2022/06/23 00:26:27;;;;;;;11.77;10.87;;;17.00;99.90;;;;;;5072216;28;20429;-53
2022/06/23 00:28:56;;;;;;;13.27;12.17;;;16.90;99.90;;;;;;5067114;28;21220;-54
2022/06/23 00:31:27;;;;;;;13.87;12.77;;;16.80;99.90;;;;;;5070951;28;20976;-50
2022/06/23 00:33:53;;;;;;;12.00;11.10;;;16.80;99.90;;;;;;5069331;28;20516;-50
2022/06/23 00:36:45;;;;;;;11.63;10.77;;;16.80;99.90;;;;;;5066690;28;20962;-53
2022/06/23 00:39:35;;;;;;;12.30;11.30;;;16.70;99.90;;;;;;5068116;28;20458;-51
2022/06/23 00:42:03;;;;;;;11.90;11.00;;;16.60;99.90;;;;;;5070448;28;20450;-54
2022/06/23 00:44:40;;;;;;;12.50;11.60;;;16.60;99.90;;;;;;5084821;28;20423;-50
2022/06/23 00:47:13;;;;;;;12.37;11.57;;;16.50;99.90;;;;;;5060012;28;20884;-52
2022/06/23 00:50:23;;;;;;;12.23;11.23;;;16.40;99.90;;;;;;5057446;28;20432;-53
2022/06/23 00:52:57;;;;;;;12.53;11.53;;;16.30;99.90;;;;;;5058323;28;20468;-53
2022/06/23 00:55:35;;;;;;;13.40;12.40;;;16.20;99.90;;;;;;5060261;28;20427;-52
2022/06/23 00:58:11;;;;;;;12.47;11.47;;;16.20;99.90;;;;;;5052891;28;20561;-52
2022/06/23 01:00:39;;;;;;;12.23;11.33;;;16.10;99.90;;;;;;5053291;28;20559;-49
2022/06/23 01:03:30;;;;;;;12.20;11.30;;;16.10;99.90;;;;;;5061512;28;20435;-54
2022/06/23 01:06:18;;;;;;;12.50;11.47;;;16.10;99.90;;;;;;5057844;28;20455;-49
2022/06/23 01:08:49;;;;;;;12.60;11.60;;;16.10;99.90;;;;;;5065398;28;20416;-53
2022/06/23 01:11:28;;;;;;;12.30;11.30;;;16.00;99.90;;;;;;5059344;28;21171;-51
2022/06/23 01:14:15;;;;;;;12.47;11.47;;;16.00;99.90;;;;;;5054576;28;20444;-51
2022/06/23 01:16:42;;;;;;;12.20;11.30;;;16.00;99.90;;;;;;5070103;28;20487;-54
2022/06/23 01:19:30;;;;;;;11.87;11.03;;;15.90;99.90;;;;;;5056442;28;21023;-53
2022/06/23 01:22:00;;;;;;;12.30;11.30;;;15.90;99.90;;;;;;5068126;28;20489;-53
2022/06/23 01:24:40;;;;;;;13.00;11.80;;;15.80;99.90;;;;;;5056741;28;20459;-51
2022/06/23 01:27:27;;;;;;;13.37;12.37;;;15.80;99.90;;;;;;5066688;28;20443;-51
2022/06/23 01:30:09;;;;;;;12.30;11.30;;;15.80;99.90;;;;;;5068294;28;20491;-50
2022/06/23 01:32:43;;;;;;;12.90;11.83;;;15.80;99.90;;;;;;5068644;28;20515;-55
2022/06/23 01:35:20;;;;;;;13.33;11.93;;;15.80;99.90;;;;;;5065090;28;20424;-55
2022/06/23 01:37:49;;;;;;;12.40;11.40;;;15.70;99.90;;;;;;5067844;28;20976;-51
2022/06/23 01:40:46;;;;;;;12.73;11.53;;;15.70;99.90;;;;;;5056900;28;20466;-54
2022/06/23 01:43:40;;;;;;;12.60;11.53;;;15.60;99.90;;;;;;5049634;28;20437;-55
2022/06/23 01:46:13;;;;;;;12.00;11.00;;;15.60;99.90;;;;;;5049110;28;20919;-52
2022/06/23 01:48:54;;;;;;;12.40;11.40;;;15.60;99.90;;;;;;5060345;28;20459;-53
2022/06/23 01:51:23;;;;;;;11.87;10.87;;;15.60;99.90;;;;;;5067507;28;20405;-52
2022/06/23 01:53:52;;;;;;;12.60;11.50;;;15.50;99.90;;;;;;5075838;28;20440;-52
2022/06/23 01:56:40;;;;;;;12.10;11.10;;;15.50;99.90;;;;;;5049209;28;20500;-51
2022/06/23 01:59:37;;;;;;;12.40;11.40;;;15.40;99.90;;;;;;5041244;28;20506;-54
2022/06/23 02:02:10;;;;;;;12.97;11.87;;;15.40;99.90;;;;;;5065935;28;20439;-51
2022/06/23 02:04:42;;;;;;;12.87;11.67;;;15.40;99.90;;;;;;5058644;28;20503;-50
2022/06/23 02:07:27;;;;;;;12.27;11.30;;;15.40;99.90;;;;;;5056103;28;20428;-51
2022/06/23 02:09:58;;;;;;;11.97;10.93;;;15.30;99.90;;;;;;5049151;28;20460;-50
2022/06/23 02:12:33;;;;;;;12.50;11.40;;;15.30;99.90;;;;;;5064141;28;20454;-53
2022/06/23 02:15:17;;;;;;;12.47;11.40;;;15.20;99.90;;;;;;5052916;28;20915;-51
2022/06/23 02:17:50;;;;;;;12.43;11.43;;;15.20;99.90;;;;;;5061968;28;20428;-53
2022/06/23 02:20:46;;;;;;;12.63;11.73;;;15.20;99.90;;;;;;5049808;28;20436;-52
2022/06/23 02:23:28;;;;;;;12.83;11.73;;;15.10;99.90;;;;;;5060203;28;20443;-53
2022/06/23 02:26:32;;;;;;;12.93;11.87;;;15.00;99.90;;;;;;5069450;28;20438;-54
2022/06/23 02:29:02;;;;;;;12.80;11.70;;;15.00;99.90;;;;;;5063605;28;20434;-52
2022/06/23 02:31:33;;;;;;;12.30;11.30;;;14.90;99.90;;;;;;5068609;28;20419;-55
2022/06/23 02:34:10;;;;;;;12.27;11.27;;;14.90;99.90;;;;;;5065165;28;20456;-50
2022/06/23 02:36:59;;;;;;;12.57;11.43;;;14.90;99.90;;;;;;5060711;28;20424;-52
2022/06/23 02:39:44;;;;;;;13.00;12.00;;;14.90;99.90;;;;;;5067524;28;20514;-55
2022/06/23 02:42:35;;;;;;;13.30;12.20;;;14.80;99.90;;;;;;5067191;28;20416;-51
2022/06/23 02:45:30;;;;;;;13.37;12.27;;;14.90;99.90;;;;;;5058960;28;20506;-53
2022/06/23 02:48:21;;;;;;;15.33;11.80;;;14.80;99.90;;;;;;5035398;28;20507;-52
2022/06/23 02:51:13;;;;;;;13.23;12.07;;;14.80;99.90;;;;;;5056711;28;20550;-54
2022/06/23 02:54:00;;;;;;;12.20;11.20;;;14.80;99.90;;;;;;5062231;28;20416;-51
2022/06/23 02:57:02;;;;;;;13.03;11.93;;;14.80;99.90;;;;;;5053035;28;20507;-54
2022/06/23 02:59:52;;;;;;;12.23;11.13;;;14.70;99.90;;;;;;5064382;28;20440;-53
2022/06/23 03:02:37;;;;;;;12.53;11.53;;;14.70;99.90;;;;;;5051486;28;20408;-51
2022/06/23 03:05:17;;;;;;;12.00;11.10;;;14.60;99.90;;;;;;5059011;28;20781;-54
2022/06/23 03:07:56;;;;;;;13.03;12.03;;;14.60;99.90;;;;;;5066071;28;20443;-53
2022/06/23 03:10:30;;;;;;;11.67;10.67;;;14.60;99.90;;;;;;5069060;28;20459;-54
2022/06/23 03:13:29;;;;;;;12.73;11.70;;;14.60;99.90;;;;;;5072227;28;20438;-53
2022/06/23 03:16:18;;;;;;;12.87;11.67;;;14.60;99.90;;;;;;5066650;28;20522;-55
2022/06/23 03:19:00;;;;;;;13.60;12.40;;;14.60;99.90;;;;;;5074359;28;20428;-52
2022/06/23 03:21:48;;;;;;;12.40;11.40;;;14.60;99.90;;;;;;5062988;28;20505;-52
2022/06/23 03:24:28;;;;;;;13.33;12.10;;;14.50;99.90;;;;;;5071402;28;20420;-51
2022/06/23 03:27:00;;;;;;;13.43;12.30;;;14.50;99.90;;;;;;5075003;28;20435;-54
2022/06/23 03:29:38;;;;;;;13.77;12.57;;;14.50;99.90;;;;;;5072517;28;20455;-53
2022/06/23 03:32:13;;;;;;;13.10;12.07;;;14.50;99.90;;;;;;5065391;28;20415;-52
2022/06/23 03:34:54;;;;;;;13.00;11.90;;;14.50;99.90;;;;;;5067469;28;20427;-50
2022/06/23 03:37:48;;;;;;;13.43;12.37;;;14.50;99.90;;;;;;5079192;28;20438;-52
2022/06/23 03:43:33;;;;;;;13.97;12.67;;;14.50;99.90;;;;;;5053408;28;20415;-53
2022/06/23 03:46:19;;;;;;;12.60;11.60;;;14.50;99.90;;;;;;5077759;28;20435;-50
2022/06/23 03:49:22;;;;;;;14.53;13.33;;;14.50;99.90;;;;;;5056584;28;20412;-52
2022/06/23 03:51:55;;;;;;;13.47;12.27;;;14.50;99.90;;;;;;5065788;28;21080;-50
2022/06/23 03:54:26;;;;;;;13.80;12.53;;;14.50;99.90;;;;;;5053157;28;20915;-50
2022/06/23 03:57:04;;;;;;;14.53;13.30;;;14.50;99.90;;;;;;5079391;28;20462;-54
2022/06/23 03:59:41;;;;;;;13.97;12.77;;;14.50;99.90;;;;;;5050766;28;20800;-49
2022/06/23 04:02:27;;;;;;;13.53;12.33;;;14.50;99.90;;;;;;5067756;28;20757;-53
2022/06/23 04:05:14;;;;;;;14.50;13.30;;;14.50;99.90;;;;;;5072082;28;20599;-50
2022/06/23 04:07:49;;;;;;;14.70;13.50;;;14.50;99.90;;;;;;5059670;28;20430;-50
2022/06/23 04:10:31;;;;;;;14.07;12.77;;;14.50;99.90;;;;;;5064605;28;20494;-51
2022/06/23 04:13:05;;;;;;;14.00;12.80;;;14.50;99.90;;;;;;5067196;28;20439;-54
2022/06/23 04:15:36;;;;;;;14.50;13.20;;;14.60;99.90;;;;;;5066919;28;20416;-51
2022/06/23 04:18:06;;;;;;;14.13;13.03;;;14.60;99.90;;;;;;5061127;28;20985;-53
2022/06/23 04:20:42;;;;;;;13.70;12.60;;;14.70;99.90;;;;;;5054807;28;20435;-51
2022/06/23 04:23:15;;;;;;;13.83;12.53;;;14.70;99.90;;;;;;5046614;28;20444;-49
2022/06/23 04:25:52;;;;;;;13.50;12.27;;;14.80;99.90;;;;;;5051523;28;20462;-51
2022/06/23 04:28:30;;;;;;;13.83;12.60;;;14.90;99.90;;;;;;5062750;28;20416;-52
2022/06/23 04:30:58;;;;;;;13.93;12.73;;;14.90;99.90;;;;;;5072234;28;21003;-53
2022/06/23 04:33:25;;;;;;;13.63;12.50;;;15.00;99.90;;;;;;5071284;28;20442;-53
2022/06/23 04:35:54;;;;;;;13.03;12.03;;;15.10;99.90;;;;;;5067791;28;20416;-51
2022/06/23 04:38:47;;;;;;;13.40;12.30;;;15.10;99.90;;;;;;5062190;28;20436;-53
2022/06/23 04:41:16;;;;;;;12.73;11.67;;;15.20;99.90;;;;;;5063161;28;20934;-54
2022/06/23 04:43:48;;;;;;;13.33;12.13;;;15.30;99.90;;;;;;5064477;28;20488;-53
2022/06/23 04:46:26;;;;;;;12.93;11.83;;;15.30;99.90;;;;;;5057781;28;20416;-52
2022/06/23 04:49:04;;;;;;;13.00;12.00;;;15.40;99.90;;;;;;5063507;28;20496;-50
2022/06/23 04:51:35;;;;;;;13.50;12.10;;;15.40;99.90;;;;;;5068899;28;20916;-51
2022/06/23 04:54:13;;;;;;;13.03;11.93;;;15.40;99.90;;;;;;5081213;28;20791;-52
2022/06/23 04:57:14;;;;;;;13.30;12.27;;;15.50;99.90;;;;;;5050599;28;20415;-52
2022/06/23 04:59:48;;;;;;;12.10;11.20;;;15.50;99.90;;;;;;5050056;28;20545;-52
2022/06/23 05:02:38;;;;;;;12.00;10.90;;;15.60;99.90;;;;;;5082586;28;20576;-48
2022/06/23 05:05:21;;;;;;;11.90;10.90;;;15.70;99.90;;;;;;5081501;28;20428;-52
2022/06/23 05:07:58;;;;;;;12.57;11.53;;;15.70;99.90;;;;;;5069279;28;20926;-51
2022/06/23 05:10:45;;;;;;;12.67;11.57;;;15.70;99.90;;;;;;5069016;28;20451;-54
2022/06/23 05:13:22;;;;;;;12.43;11.43;;;15.70;99.90;;;;;;5069482;28;20943;-55
2022/06/23 05:15:56;;;;;;;12.57;11.47;;;15.90;99.90;;;;;;5068481;28;20425;-52
2022/06/23 05:18:31;;;;;;;13.93;12.40;;;16.00;99.90;;;;;;5070407;28;20407;-50
2022/06/23 05:21:00;;;;;;;11.87;10.87;;;16.10;99.90;;;;;;5068376;28;20517;-50
2022/06/23 05:23:39;;;;;;;13.10;11.93;;;16.10;99.90;;;;;;5087045;28;20443;-51
2022/06/23 05:26:14;;;;;;;12.70;11.37;;;16.30;99.90;;;;;;5084399;28;20514;-55
2022/06/23 05:28:43;;;;;;;12.03;10.93;;;16.50;99.90;;;;;;5076707;28;20454;-54
2022/06/23 05:31:17;;;;;;;11.93;10.93;;;16.50;99.90;;;;;;5074525;28;20478;-50
2022/06/23 05:33:49;;;;;;;12.70;11.70;;;16.60;99.90;;;;;;5069651;28;20899;-50
2022/06/23 05:36:44;;;;;;;12.20;11.20;;;16.70;99.90;;;;;;5076263;28;20551;-51
2022/06/23 05:39:38;;;;;;;12.47;11.57;;;16.60;99.90;;;;;;5052352;28;20419;-53
2022/06/23 05:42:16;;;;;;;11.63;10.70;;;16.70;99.90;;;;;;5047986;28;20441;-50
2022/06/23 05:44:49;;;;;;;11.97;10.97;;;16.70;99.90;;;;;;5056923;28;20414;-55
2022/06/23 05:47:18;;;;;;;12.47;11.27;;;16.90;99.90;;;;;;5067326;28;20454;-52
2022/06/23 05:49:48;;;;;;;12.10;11.10;;;17.00;99.90;;;;;;5049537;28;20546;-52
2022/06/23 05:52:27;;;;;;;12.10;11.20;;;17.00;99.90;;;;;;5062730;28;20484;-53
2022/06/23 05:55:07;;;;;;;11.87;10.97;;;17.20;99.90;;;;;;5049462;28;20893;-53
2022/06/23 05:57:43;;;;;;;11.53;10.53;;;17.30;99.90;;;;;;5055379;28;20467;-51
2022/06/23 06:00:26;;;;;;;11.67;10.87;;;17.40;99.90;;;;;;5061756;28;20877;-52
2022/06/23 06:03:11;;;;;;;11.83;11.00;;;17.40;99.90;;;;;;5087270;28;20445;-49
2022/06/23 06:05:41;;;;;;;11.87;10.77;;;17.50;99.90;;;;;;5059359;28;20425;-50
2022/06/23 06:08:32;;;;;;;11.87;10.97;;;17.60;99.90;;;;;;5063550;28;20500;-54
2022/06/23 06:11:01;;;;;;;12.57;11.40;;;17.80;99.90;;;;;;5071304;28;20470;-50
2022/06/23 06:13:32;;;;;;;11.73;10.83;;;17.90;99.90;;;;;;5060704;28;20950;-51
2022/06/23 06:15:59;;;;;;;12.00;11.00;;;17.90;99.90;;;;;;5064163;28;20417;-54
2022/06/23 06:18:31;;;;;;;11.50;10.60;;;18.00;99.90;;;;;;5063999;28;20832;-47
2022/06/23 06:21:01;;;;;;;11.83;11.00;;;18.10;99.90;;;;;;5071032;28;20538;-50
2022/06/23 06:23:33;;;;;;;12.33;11.27;;;18.20;99.90;;;;;;5071389;28;20971;-54
2022/06/23 06:25:59;;;;;;;11.93;11.00;;;18.30;99.90;;;;;;5063641;28;20531;-53
2022/06/23 06:28:30;;;;;;;12.40;11.43;;;18.40;99.90;;;;;;5062389;28;20551;-52
2022/06/23 06:31:14;;;;;;;10.60;9.83;;;18.50;99.90;;;;;;5072736;28;20471;-52
2022/06/23 06:34:04;;;;;;;11.37;10.47;;;18.60;99.90;;;;;;5072847;28;20438;-53
2022/06/23 06:36:39;;;;;;;11.63;10.83;;;18.70;99.90;;;;;;5060028;28;20415;-55
2022/06/23 06:39:14;;;;;;;12.00;11.10;;;18.80;99.90;;;;;;5059986;28;20431;-51
2022/06/23 06:41:43;;;;;;;11.73;10.83;;;18.90;99.90;;;;;;5068974;28;20427;-52
2022/06/23 06:44:11;;;;;;;11.40;10.50;;;19.00;99.90;;;;;;5074617;28;20835;-52
2022/06/23 06:46:38;;;;;;;11.87;10.87;;;19.20;98.70;;;;;;5069780;28;20428;-51
2022/06/23 06:49:05;;;;;;;11.13;10.23;;;19.30;97.50;;;;;;5066784;28;20906;-55
2022/06/23 06:51:32;;;;;;;12.40;11.13;;;19.40;97.10;;;;;;5068247;28;20431;-52
2022/06/23 06:54:06;;;;;;;12.10;11.30;;;19.50;97.10;;;;;;5067321;28;20512;-55
2022/06/23 06:56:46;;;;;;;11.30;10.30;;;19.60;96.90;;;;;;5068726;28;20932;-54
2022/06/23 06:59:37;;;;;;;11.33;10.53;;;19.70;96.40;;;;;;5067831;28;20463;-54
2022/06/23 07:02:19;;;;;;;12.60;11.50;;;19.80;95.70;;;;;;5069388;28;20746;-53
2022/06/23 07:04:54;;;;;;;11.23;10.33;;;20.00;94.70;;;;;;5068727;28;20510;-53
2022/06/23 07:07:27;;;;;;;11.23;10.53;;;20.10;93.80;;;;;;5068819;28;20423;-53
2022/06/23 07:10:11;;;;;;;12.13;11.33;;;20.20;93.90;;;;;;5068215;28;20966;-54
2022/06/23 07:13:00;;;;;;;11.80;11.00;;;20.50;93.00;;;;;;5071911;28;20928;-52
2022/06/23 07:15:35;;;;;;;11.50;10.70;;;20.70;91.60;;;;;;5048680;28;20458;-53
2022/06/23 07:18:15;;;;;;;11.37;10.57;;;20.80;90.40;;;;;;5050500;28;20393;-53
2022/06/23 07:20:55;;;;;;;11.40;10.70;;;20.90;89.70;;;;;;5068676;28;20818;-54
2022/06/23 07:23:44;;;;;;;10.93;10.00;;;21.20;87.50;;;;;;5081447;28;20510;-51
2022/06/23 07:26:33;;;;;;;10.73;9.93;;;21.30;89.30;;;;;;5068436;28;20543;-52
2022/06/23 07:29:12;;;;;;;10.67;9.93;;;21.40;88.50;;;;;;5071488;28;20427;-54
2022/06/23 07:31:55;;;;;;;11.63;10.77;;;21.50;87.10;;;;;;5080599;28;20449;-51
2022/06/23 07:34:24;;;;;;;10.97;10.27;;;21.60;85.00;;;;;;5061371;28;20440;-51
2022/06/23 07:36:56;;;;;;;10.80;9.80;;;21.70;83.10;;;;;;5072085;28;20822;-50
2022/06/23 07:39:42;;;;;;;11.00;10.17;;;21.80;81.70;;;;;;5071123;28;21099;-54
2022/06/23 07:42:31;;;;;;;10.73;9.83;;;22.00;81.70;;;;;;5077868;28;20860;-53
2022/06/23 07:45:05;;;;;;;11.00;10.00;;;22.20;79.50;;;;;;5070487;28;20515;-54
2022/06/23 07:47:31;;;;;;;11.33;10.53;;;22.60;76.60;;;;;;5073138;28;20409;-52
2022/06/23 07:49:57;;;;;;;10.33;9.63;;;22.70;75.60;;;;;;5072827;28;20521;-50
2022/06/23 07:52:23;;;;;;;10.10;9.40;;;22.90;73.60;;;;;;5088383;28;20588;-55
2022/06/23 07:54:50;;;;;;;10.93;10.03;;;23.00;73.80;;;;;;5069531;28;20185;-51
2022/06/23 07:57:16;;;;;;;11.20;10.40;;;23.20;72.80;;;;;;5059339;28;20448;-54
2022/06/23 07:59:50;;;;;;;10.67;9.87;;;23.30;71.40;;;;;;5062331;28;21239;-55
2022/06/23 08:02:24;;;;;;;10.30;9.37;;;23.40;70.20;;;;;;5062645;28;20474;-49
2022/06/23 08:05:03;;;;;;;10.53;9.83;;;23.70;68.80;;;;;;5050672;28;20495;-51
2022/06/23 08:07:30;;;;;;;10.80;9.80;;;23.80;68.90;;;;;;5055990;28;21009;-51
2022/06/23 08:10:00;;;;;;;10.30;9.60;;;23.90;68.80;;;;;;5053454;28;20560;-55
2022/06/23 08:12:55;;;;;;;10.83;9.83;;;24.00;67.70;;;;;;5063700;28;21311;-52
2022/06/23 08:18:31;;;;;;;11.43;10.50;;;24.40;65.60;;;;;;5057854;28;20586;-55
2022/06/23 08:21:18;;;;;;;9.53;8.90;;;24.70;62.70;;;;;;5056941;28;20518;-51
2022/06/23 08:23:53;;;;;;;10.43;9.73;;;24.90;61.40;;;;;;5061049;28;20957;-56
2022/06/23 08:26:21;;;;;;;10.83;9.83;;;25.10;61.30;;;;;;5069749;28;20426;-53
2022/06/23 08:28:48;;;;;;;10.33;9.73;;;25.40;59.50;;;;;;5070345;28;20408;-53
2022/06/23 08:31:16;;;;;;;10.30;9.60;;;25.60;57.70;;;;;;5070230;28;20484;-50
2022/06/23 08:33:41;;;;;;;10.87;10.07;;;25.60;57.20;;;;;;5070114;28;20443;-53
2022/06/23 08:36:14;;;;;;;10.20;9.50;;;25.80;56.90;;;;;;5054756;28;20428;-55
2022/06/23 08:39:00;;;;;;;10.20;9.30;;;26.00;56.40;;;;;;5070410;28;20242;-54
2022/06/23 08:41:54;;;;;;;10.20;9.30;;;26.00;55.20;;;;;;5055054;28;20453;-51
2022/06/23 08:44:44;;;;;;;10.93;10.00;;;26.30;53.60;;;;;;5053707;28;20449;-55
2022/06/23 08:47:22;;;;;;;10.60;9.73;;;26.50;52.40;;;;;;5060604;28;20941;-56
2022/06/23 08:49:52;;;;;;;10.73;10.03;;;26.50;53.00;;;;;;5067389;28;20522;-50
2022/06/23 08:52:43;;;;;;;9.90;9.20;;;26.50;52.20;;;;;;5065230;28;20503;-52
2022/06/23 08:55:37;;;;;;;9.23;8.63;;;26.80;51.50;;;;;;5041140;28;21105;-53
2022/06/23 08:58:17;;;;;;;9.20;8.60;;;27.20;50.90;;;;;;5051184;28;20482;-51
2022/06/23 09:00:57;;;;;;;9.60;8.90;;;27.50;48.80;;;;;;5064109;28;20506;-54
2022/06/23 09:03:43;;;;;;;10.50;9.80;;;27.80;48.40;;;;;;5064201;28;20454;-56
2022/06/23 09:06:30;;;;;;;9.50;8.90;;;27.90;46.60;;;;;;5051183;28;20461;-55
2022/06/23 09:09:28;;;;;;;10.00;9.40;;;28.20;45.80;;;;;;5064728;28;20442;-52
2022/06/23 09:12:03;;;;;;;9.60;9.00;;;28.50;45.80;;;;;;5063476;28;20466;-52
2022/06/23 09:14:47;;;;;;;9.43;8.87;;;28.80;43.10;;;;;;5065076;28;20473;-53
2022/06/23 09:17:32;;;;;;;10.07;9.47;;;29.00;41.50;;;;;;5067577;28;20425;-55
2022/06/23 09:20:04;;;;;;;9.40;8.90;;;29.30;41.10;;;;;;5057548;28;20416;-54
2022/06/23 09:22:45;;;;;;;8.73;8.03;;;29.70;39.50;;;;;;5067843;28;20418;-55
2022/06/23 09:25:10;;;;;;;9.20;8.60;;;30.10;37.40;;;;;;5064776;28;20443;-53
2022/06/23 09:27:57;;;;;;;8.30;7.73;;;30.40;37.30;;;;;;5063422;28;20416;-52
2022/06/23 09:30:42;;;;;;;7.60;7.10;;;31.00;32.00;;;;;;5054416;28;20286;-52
2022/06/23 09:33:32;;;;;;;8.03;7.43;;;31.70;28.00;;;;;;5061459;28;20599;-52
2022/06/23 09:36:17;;;;;;;7.43;7.03;;;32.30;27.80;;;;;;5052425;28;20476;-53
2022/06/23 09:39:07;;;;;;;7.13;6.70;;;33.20;27.50;;;;;;5065536;28;20440;-53
2022/06/23 09:41:33;;;;;;;7.30;6.73;;;34.10;24.80;;;;;;5084001;28;20470;-56
2022/06/23 09:44:25;;;;;;;7.63;7.27;;;34.70;21.80;;;;;;5065998;28;20902;-55
2022/06/23 09:47:34;;;;;;;7.27;6.87;;;35.10;21.50;;;;;;5066938;28;20173;-55
2022/06/23 09:50:14;;;;;;;7.30;6.80;;;35.80;19.20;;;;;;5048429;28;20467;-57
2022/06/23 09:52:46;;;;;;;6.90;6.40;;;36.70;18.70;;;;;;5066992;28;20424;-57
2022/06/23 09:55:22;;;;;;;7.40;6.83;;;36.60;18.50;;;;;;5067802;28;20507;-56
2022/06/23 09:58:25;;;;;;;5.83;5.53;;;36.90;18.60;;;;;;5051319;28;21031;-57
2022/06/23 10:01:18;;;;;;;7.97;7.57;;;37.20;16.90;;;;;;5044325;28;20459;-54
2022/06/23 10:03:56;;;;;;;6.97;6.57;;;37.30;16.40;;;;;;5048635;28;20409;-58
2022/06/23 10:06:38;;;;;;;6.67;6.13;;;37.80;16.20;;;;;;5047605;28;20448;-57
2022/06/23 10:09:24;;;;;;;6.50;6.20;;;38.00;15.70;;;;;;5038536;28;20833;-57
2022/06/23 10:12:29;;;;;;;7.40;7.03;;;37.80;15.00;;;;;;5034983;28;20847;-55
2022/06/23 10:15:28;;;;;;;7.33;6.93;;;38.20;15.00;;;;;;5029823;28;21107;-53
2022/06/23 10:18:15;;;;;;;7.23;6.83;;;38.80;14.60;;;;;;5036611;28;20459;-54
2022/06/23 10:20:59;;;;;;;7.30;7.00;;;39.30;14.10;;;;;;5041045;28;20489;-56
2022/06/23 10:23:45;;;;;;;7.03;6.70;;;39.60;13.90;;;;;;5041549;28;20462;-56
2022/06/23 10:26:49;;;;;;;6.90;6.50;;;39.50;12.10;;;;;;5039948;28;20778;-57
2022/06/23 10:29:50;;;;;;;6.67;6.37;;;39.70;11.70;;;;;;5029818;28;20455;-57
2022/06/23 10:32:31;;;;;;;6.60;6.30;;;40.00;10.40;;;;;;5021368;28;20454;-59
2022/06/23 10:35:29;;;;;;;7.10;6.80;;;40.00;9.80;;;;;;5030660;28;20461;-58
2022/06/23 10:38:06;;;;;;;6.97;6.60;;;40.10;11.60;;;;;;5032146;28;20500;-56
2022/06/23 10:40:38;;;;;;;6.90;6.60;;;40.00;12.10;;;;;;5032460;28;20495;-53
2022/06/23 10:43:38;;;;;;;7.40;7.00;;;40.10;11.70;;;;;;5034915;28;20433;-55
2022/06/23 10:46:06;;;;;;;6.87;6.57;;;40.60;11.80;;;;;;5035217;28;20548;-56
2022/06/23 10:48:50;;;;;;;7.33;6.93;;;40.20;10.40;;;;;;5038699;28;20438;-51
2022/06/23 10:51:53;;;;;;;6.87;6.40;;;39.80;10.50;;;;;;5029074;28;20452;-55
2022/06/23 10:54:47;;;;;;;6.30;5.90;;;39.50;10.50;;;;;;5030203;28;20421;-57
2022/06/23 10:57:39;;;;;;;6.53;6.13;;;40.20;8.70;;;;;;5028255;28;20417;-57
2022/06/23 11:00:05;;;;;;;6.90;6.60;;;40.60;49.60;;;;;;5049659;28;20493;-55
2022/06/23 11:02:53;;;;;;;6.67;6.30;;;40.50;49.00;;;;;;5073604;28;20439;-56
2022/06/23 11:05:28;;;;;;;7.20;6.80;;;40.80;49.60;;;;;;5056318;28;20185;-56
2022/06/23 11:08:11;;;;;;;7.00;6.60;;;41.30;47.60;;;;;;5067720;28;20415;-56
2022/06/23 11:10:38;;;;;;;6.27;5.87;;;40.70;47.70;;;;;;5071914;28;20416;-57
2022/06/23 11:13:22;;;;;;;7.10;6.53;;;40.80;47.10;;;;;;5075733;28;20476;-57
2022/06/23 11:16:17;;;;;;;6.63;6.23;;;41.10;47.60;;;;;;5065989;28;20423;-58
2022/06/23 11:18:55;;;;;;;6.20;5.93;;;41.80;44.40;;;;;;5071384;28;20805;-56
2022/06/23 11:21:59;;;;;;;6.43;5.93;;;42.10;43.50;;;;;;5070545;28;20475;-57
2022/06/23 11:24:35;;;;;;;5.97;5.67;;;42.20;43.00;;;;;;5066796;28;20497;-56
2022/06/23 11:27:12;;;;;;;6.63;6.23;;;42.40;42.00;;;;;;5070628;28;20433;-56
2022/06/23 11:30:03;;;;;;;6.10;5.80;;;42.70;38.90;;;;;;5053253;28;20501;-56
2022/06/23 11:32:53;;;;;;;6.37;6.07;;;42.40;38.50;;;;;;5051867;28;20518;-54
2022/06/23 11:35:25;;;;;;;6.30;5.80;;;42.20;33.50;;;;;;5071166;28;20465;-56
2022/06/23 11:38:18;;;;;;;5.97;5.63;;;41.10;33.30;;;;;;5070296;28;20979;-56
2022/06/23 11:40:55;;;;;;;6.57;6.17;;;40.70;32.20;;;;;;5070517;28;20447;-56
2022/06/23 11:43:25;;;;;;;6.50;6.00;;;40.20;31.50;;;;;;5072760;28;21032;-57
2022/06/23 11:46:08;;;;;;;6.57;6.07;;;40.20;35.70;;;;;;5069457;28;20835;-54
2022/06/23 11:48:57;;;;;;;6.50;6.20;;;40.60;35.10;;;;;;5054595;28;20448;-55
2022/06/23 11:51:37;;;;;;;6.10;5.90;;;41.40;32.90;;;;;;5069272;28;20427;-57
2022/06/23 11:54:28;;;;;;;5.73;5.30;;;41.90;31.60;;;;;;5070927;28;20894;-57
2022/06/23 11:57:20;;;;;;;6.27;5.97;;;42.40;31.60;;;;;;5068415;28;20439;-57
2022/06/23 12:00:09;;;;;;;6.40;6.20;;;42.70;29.90;;;;;;5070703;28;21094;-57
2022/06/23 12:03:00;;;;;;;6.10;5.80;;;42.80;29.60;;;;;;5070536;28;20420;-58
2022/06/23 12:05:38;;;;;;;6.77;6.37;;;42.90;29.60;;;;;;5070795;28;20411;-56
2022/06/23 12:08:19;;;;;;;7.87;7.17;;;43.30;28.20;;;;;;5074175;28;20447;-58
2022/06/23 12:10:45;;;;;;;5.70;5.50;;;43.10;27.50;;;;;;5070583;28;20424;-57
2022/06/23 12:13:11;;;;;;;5.70;5.50;;;43.90;26.40;;;;;;5070501;28;20403;-57
2022/06/23 12:15:42;;;;;;;6.03;5.63;;;44.50;24.80;;;;;;5067984;28;20193;-57
2022/06/23 12:18:08;;;;;;;5.70;5.50;;;44.50;24.90;;;;;;5084525;28;20188;-57
2022/06/23 12:20:51;;;;;;;6.83;6.53;;;44.40;25.00;;;;;;5077361;28;20477;-57
2022/06/23 12:23:37;;;;;;;6.17;5.97;;;44.20;24.30;;;;;;5070528;28;20612;-56
2022/06/23 12:26:27;;;;;;;6.27;5.87;;;44.60;24.00;;;;;;5070640;28;20407;-57
2022/06/23 12:29:19;;;;;;;6.50;6.20;;;44.90;24.00;;;;;;5089431;28;20450;-55
2022/06/23 12:32:10;;;;;;;6.40;5.90;;;45.10;20.70;;;;;;5071849;28;20506;-58
2022/06/23 12:34:38;;;;;;;6.30;6.00;;;44.50;20.80;;;;;;5064048;28;20477;-56
2022/06/23 12:37:10;;;;;;;6.60;6.30;;;43.50;20.60;;;;;;5066560;28;20442;-56
2022/06/23 12:40:06;;;;;;;6.30;6.00;;;42.70;21.30;;;;;;5083778;28;21189;-56
2022/06/23 12:42:42;;;;;;;6.97;6.67;;;41.20;21.20;;;;;;5068707;28;20424;-56
2022/06/23 12:45:30;;;;;;;6.83;6.53;;;40.10;22.10;;;;;;5064182;28;20411;-57
2022/06/23 12:48:20;;;;;;;7.30;7.00;;;39.60;22.70;;;;;;5067960;28;20467;-58
2022/06/23 12:51:03;;;;;;;7.10;6.70;;;39.10;23.70;;;;;;5069689;28;20446;-56
2022/06/23 12:53:50;;;;;;;6.20;5.80;;;39.20;25.10;;;;;;5063778;28;20832;-58
2022/06/23 12:57:02;;;;;;;6.70;6.30;;;39.30;23.80;;;;;;5069468;28;20411;-57
2022/06/23 12:59:43;;;;;;;7.40;6.90;;;39.40;24.10;;;;;;5020924;28;20478;-60
2022/06/23 13:02:27;;;;;;;7.70;7.30;;;39.80;24.30;;;;;;5059013;28;20771;-58
2022/06/23 13:05:25;;;;;;;7.10;6.80;;;40.10;22.90;;;;;;5058174;28;20894;-59
2022/06/23 13:07:56;;;;;;;7.07;6.67;;;40.50;23.00;;;;;;5051159;28;20465;-57
2022/06/23 13:10:49;;;;;;;6.80;6.50;;;41.20;21.70;;;;;;5069456;28;20438;-59
2022/06/23 13:13:34;;;;;;;6.80;6.50;;;41.40;21.30;;;;;;5066848;28;20925;-58
2022/06/23 13:16:14;;;;;;;7.27;6.87;;;41.70;21.80;;;;;;5067777;28;20431;-57
2022/06/23 13:18:47;;;;;;;6.40;6.10;;;42.40;22.20;;;;;;5059358;28;20450;-58
2022/06/23 13:21:18;;;;;;;7.07;6.77;;;43.30;20.30;;;;;;5067581;28;20453;-58
2022/06/23 13:23:44;;;;;;;7.10;6.70;;;43.50;19.20;;;;;;5066420;28;20427;-56
2022/06/23 13:26:27;;;;;;;6.63;6.33;;;43.70;17.50;;;;;;5067554;28;20423;-59
2022/06/23 13:29:24;;;;;;;6.60;6.20;;;43.90;18.70;;;;;;5068920;28;20177;-59
2022/06/23 13:31:52;;;;;;;6.73;6.23;;;44.30;16.10;;;;;;5050730;28;20493;-59
2022/06/23 13:34:29;;;;;;;6.47;6.27;;;44.80;15.90;;;;;;5066293;28;20173;-57
2022/06/23 13:37:03;;;;;;;6.82;6.55;;;45.30;15.30;;;;;;5063220;28;20184;-57
2022/06/23 13:39:59;;;;;;;6.17;5.97;;;45.40;14.50;;;;;;5064240;28;20196;-57
2022/06/23 13:42:35;;;;;;;5.53;5.33;;;45.60;14.10;;;;;;4971608;28;20192;-55
2022/06/23 13:45:22;;;;;;;5.80;5.40;;;45.20;12.00;;;;;;5065101;28;20177;-57
2022/06/23 13:47:57;;;;;;;5.93;5.63;;;44.90;12.90;;;;;;5067833;28;20189;-56